Time;durP1;ratioP1;P1;durP2;ratioP2;P2;SDS_P1;SDS_P2;PMS_P1;PMS_P2;Temp;Humidity;BMP_temperature;BMP_pressure;BME280_temperature;BME280_humidity;BME280_pressure;Samples;Min_cycle;Max_cycle;Signal;HPM_P1;HPM_P2
2022/06/29 00:00:57;;;;;;;119.20;55.83;;;;;;;22.70;100.00;93876.97;5044538;28;20217;-69
2022/06/29 00:03:40;;;;;;;118.00;53.27;;;;;;;22.95;100.00;93876.19;5050771;28;20221;-70
2022/06/29 00:06:24;;;;;;;129.60;52.23;;;;;;;22.83;100.00;93867.31;5045968;28;20247;-69
2022/06/29 00:09:08;;;;;;;88.57;45.77;;;;;;;22.84;100.00;93865.88;5046375;28;20267;-70
2022/06/29 00:11:52;;;;;;;97.30;47.53;;;;;;;22.63;100.00;93858.22;5045340;28;20244;-70
2022/06/29 00:14:41;;;;;;;108.87;47.40;;;;;;;23.12;100.00;93865.13;5049688;28;20356;-63
2022/06/29 00:17:25;;;;;;;108.17;43.90;;;;;;;22.83;100.00;93858.75;5049868;28;20219;-63
2022/06/29 00:20:10;;;;;;;120.77;48.30;;;;;;;22.88;100.00;93848.88;5050223;28;20209;-64
2022/06/29 00:22:54;;;;;;;78.67;40.97;;;;;;;23.03;100.00;93844.19;5044686;28;20247;-64
2022/06/29 00:25:38;;;;;;;97.20;46.97;;;;;;;22.96;100.00;93842.59;5054529;28;20225;-65
2022/06/29 00:28:23;;;;;;;95.30;45.50;;;;;;;23.09;100.00;93838.63;5049915;28;20208;-66
2022/06/29 00:31:08;;;;;;;70.03;39.50;;;;;;;23.11;100.00;93832.94;5043204;28;20202;-67
2022/06/29 00:33:52;;;;;;;83.27;42.20;;;;;;;23.26;100.00;93828.28;5050445;28;20213;-67
2022/06/29 00:36:35;;;;;;;75.40;39.83;;;;;;;23.19;100.00;93835.28;5045070;28;20196;-67
2022/06/29 00:39:19;;;;;;;74.87;41.10;;;;;;;22.95;100.00;93836.19;5048041;28;20201;-68
2022/06/29 00:42:04;;;;;;;67.97;38.43;;;;;;;22.98;100.00;93823.38;5044224;28;20226;-68
2022/06/29 00:44:48;;;;;;;75.83;39.73;;;;;;;22.93;100.00;93833.25;5049056;28;20201;-68
2022/06/29 00:47:32;;;;;;;75.17;40.77;;;;;;;22.83;100.00;93830.19;5048134;28;20205;-68
2022/06/29 00:50:16;;;;;;;71.70;40.37;;;;;;;22.37;100.00;93834.69;5054246;28;20208;-69
2022/06/29 00:53:03;;;;;;;87.40;42.63;;;;;;;22.10;100.00;93838.97;5052536;28;20197;-69
2022/06/29 00:55:50;;;;;;;89.87;44.20;;;;;;;22.25;100.00;93828.66;5053598;28;20660;-69
2022/06/29 00:58:34;;;;;;;74.80;39.80;;;;;;;22.33;100.00;93834.59;5041969;28;20603;-70
2022/06/29 01:01:18;;;;;;;80.60;40.63;;;;;;;22.84;100.00;93825.88;5051316;28;20205;-67
2022/06/29 01:04:02;;;;;;;57.63;31.93;;;;;;;22.48;100.00;93825.69;5055335;28;20270;-64
2022/06/29 01:06:46;;;;;;;65.37;34.43;;;;;;;22.64;100.00;93831.09;5051381;28;20201;-64
2022/06/29 01:09:30;;;;;;;74.03;37.17;;;;;;;22.35;100.00;93834.63;5052121;28;20197;-64
2022/06/29 01:12:16;;;;;;;65.17;32.60;;;;;;;22.56;100.00;93830.91;5044642;28;20248;-64
2022/06/29 01:14:59;;;;;;;57.93;31.77;;;;;;;22.63;100.00;93812.50;5053505;28;20690;-61
2022/06/29 01:17:44;;;;;;;78.30;33.93;;;;;;;22.83;100.00;93807.31;5054647;28;20307;-61
2022/06/29 01:20:28;;;;;;;67.23;33.23;;;;;;;22.63;100.00;93812.50;5050081;28;20274;-62
2022/06/29 01:23:12;;;;;;;60.40;33.00;;;;;;;22.40;100.00;93807.66;5052289;28;20288;-61
2022/06/29 01:25:56;;;;;;;62.97;29.80;;;;;;;22.17;100.00;93814.91;5053663;28;20220;-61
2022/06/29 01:28:44;;;;;;;70.47;30.37;;;;;;;22.49;100.00;93815.00;5053851;28;20293;-62
2022/06/29 01:31:28;;;;;;;88.77;36.73;;;;;;;22.24;100.00;93815.78;5043962;28;20282;-61
2022/06/29 01:34:12;;;;;;;84.50;35.97;;;;;;;22.22;100.00;93821.47;5052690;28;20210;-61
2022/06/29 01:36:57;;;;;;;83.97;36.03;;;;;;;21.84;100.00;93807.59;5053803;28;20666;-61
2022/06/29 01:39:42;;;;;;;75.93;34.33;;;;;;;21.82;100.00;93804.66;5051543;28;20316;-61
2022/06/29 01:42:26;;;;;;;89.10;35.93;;;;;;;22.11;100.00;93812.63;5041013;28;20245;-61
2022/06/29 01:45:10;;;;;;;64.57;32.23;;;;;;;21.83;100.00;93794.72;5052035;28;20740;-62
2022/06/29 01:47:54;;;;;;;77.30;32.33;;;;;;;21.99;100.00;93786.63;5053911;28;20208;-61
2022/06/29 01:50:39;;;;;;;65.93;32.57;;;;;;;22.04;100.00;93782.47;5046645;28;20202;-61
2022/06/29 01:53:22;;;;;;;74.60;34.17;;;;;;;22.19;100.00;93781.44;5052828;28;20689;-61
2022/06/29 01:56:06;;;;;;;65.30;31.50;;;;;;;21.97;100.00;93792.25;5048910;28;20274;-61
2022/06/29 01:58:51;;;;;;;69.50;30.50;;;;;;;21.10;99.99;93780.50;5049801;28;20200;-62
2022/06/29 02:01:35;;;;;;;51.27;28.00;;;;;;;21.46;100.00;93781.56;5052050;28;20599;-61
2022/06/29 02:04:20;;;;;;;66.63;31.83;;;;;;;21.85;100.00;93783.34;5052647;28;20639;-62
2022/06/29 02:07:04;;;;;;;69.67;33.83;;;;;;;21.67;100.00;93791.41;5053404;28;20205;-62
2022/06/29 02:09:48;;;;;;;68.77;33.23;;;;;;;21.66;100.00;93799.22;5048204;28;20252;-63
2022/06/29 02:12:32;;;;;;;80.57;36.27;;;;;;;22.00;100.00;93799.47;5045842;28;20251;-63
2022/06/29 02:15:16;;;;;;;73.50;35.07;;;;;;;22.16;100.00;93790.59;5052187;28;20196;-61
2022/06/29 02:18:01;;;;;;;70.60;35.60;;;;;;;22.21;100.00;93802.88;5050670;28;20686;-63
2022/06/29 02:20:45;;;;;;;75.90;37.73;;;;;;;22.25;100.00;93809.41;5042531;28;20205;-67
2022/06/29 02:23:30;;;;;;;94.37;41.00;;;;;;;22.33;100.00;93797.47;5050477;28;20305;-69
2022/06/29 02:26:14;;;;;;;98.17;41.27;;;;;;;22.62;100.00;93793.91;5052601;28;20617;-70
2022/06/29 02:28:59;;;;;;;83.83;36.90;;;;;;;22.58;100.00;93782.41;5047867;28;20295;-70
2022/06/29 02:34:46;;;;;;;109.37;38.47;;;;;;;22.54;100.00;93765.16;5049254;28;20209;-70
2022/06/29 02:37:30;;;;;;;66.57;33.73;;;;;;;21.61;100.00;93768.44;5045869;28;20197;-70
2022/06/29 02:40:14;;;;;;;109.93;41.57;;;;;;;22.21;100.00;93762.91;5052172;28;20283;-71
2022/06/29 02:42:58;;;;;;;90.87;38.53;;;;;;;22.12;100.00;93757.00;5042869;28;20224;-70
2022/06/29 02:45:42;;;;;;;84.20;38.87;;;;;;;22.26;100.00;93767.31;5048787;28;20201;-70
2022/06/29 02:48:25;;;;;;;108.57;43.13;;;;;;;22.34;100.00;93784.66;5052741;28;20222;-71
2022/06/29 02:51:09;;;;;;;88.83;38.40;;;;;;;22.58;100.00;93770.97;5052036;28;20241;-71
2022/06/29 02:53:53;;;;;;;99.90;37.63;;;;;;;22.56;100.00;93765.94;5047785;28;20240;-63
2022/06/29 02:56:37;;;;;;;160.57;46.67;;;;;;;22.84;100.00;93777.31;5043235;28;20277;-63
2022/06/29 02:59:22;;;;;;;89.50;37.70;;;;;;;22.57;100.00;93798.06;5056729;28;20576;-63
2022/06/29 03:02:06;;;;;;;82.80;37.97;;;;;;;22.58;100.00;93805.25;5048372;28;20273;-64
2022/06/29 03:04:51;;;;;;;72.40;37.10;;;;;;;22.57;100.00;93803.78;5051804;28;20233;-66
2022/06/29 03:07:35;;;;;;;136.90;43.10;;;;;;;22.58;100.00;93793.81;5048599;28;20216;-68
2022/06/29 03:10:19;;;;;;;74.23;35.70;;;;;;;22.77;100.00;93792.88;5049201;28;20209;-71
2022/06/29 03:13:03;;;;;;;91.47;39.30;;;;;;;22.84;100.00;93785.88;5049192;28;20197;-71
2022/06/29 03:15:47;;;;;;;64.47;34.93;;;;;;;22.69;100.00;93789.81;5051052;28;20243;-71
2022/06/29 03:18:31;;;;;;;85.97;37.87;;;;;;;22.75;100.00;93798.53;5051926;28;20202;-72
2022/06/29 03:21:16;;;;;;;86.53;38.67;;;;;;;22.58;100.00;93802.41;5043137;28;20324;-63
2022/06/29 03:24:03;;;;;;;92.13;39.80;;;;;;;22.63;100.00;93801.09;5054063;28;20698;-63
2022/06/29 03:26:48;;;;;;;73.83;35.27;;;;;;;22.76;100.00;93805.72;5050003;28;20205;-63
2022/06/29 03:29:31;;;;;;;64.60;35.57;;;;;;;22.55;100.00;93807.31;5045222;28;20252;-63
2022/06/29 03:32:15;;;;;;;61.03;33.10;;;;;;;22.47;100.00;93809.22;5043774;28;20732;-63
2022/06/29 03:34:59;;;;;;;59.17;34.73;;;;;;;22.77;100.00;93815.75;5049936;28;20255;-66
2022/06/29 03:37:43;;;;;;;67.37;37.57;;;;;;;22.70;100.00;93805.53;5046387;28;20675;-65
2022/06/29 03:40:27;;;;;;;59.40;33.23;;;;;;;22.83;100.00;93818.00;5043561;28;20228;-62
2022/06/29 03:43:12;;;;;;;58.10;33.67;;;;;;;22.69;100.00;93821.22;5045151;28;20210;-68
2022/06/29 03:45:55;;;;;;;55.83;33.73;;;;;;;22.45;100.00;93820.63;5050232;28;20228;-61
2022/06/29 03:48:39;;;;;;;62.33;34.50;;;;;;;22.60;100.00;93822.41;5045925;28;20206;-64
2022/06/29 03:51:23;;;;;;;49.53;29.67;;;;;;;22.62;100.00;93819.63;5047456;28;20552;-62
2022/06/29 03:54:07;;;;;;;48.93;29.90;;;;;;;21.57;100.00;93819.66;5051189;28;20237;-62
2022/06/29 03:56:51;;;;;;;46.80;30.57;;;;;;;21.72;100.00;93824.38;5049296;28;20205;-67
2022/06/29 03:59:36;;;;;;;49.90;31.90;;;;;;;22.38;100.00;93821.88;5049856;28;20221;-69
2022/06/29 04:02:20;;;;;;;54.63;32.70;;;;;;;22.48;100.00;93830.69;5044583;28;20221;-61
2022/06/29 04:05:04;;;;;;;40.07;28.77;;;;;;;22.34;100.00;93818.91;5045138;28;20565;-62
2022/06/29 04:07:48;;;;;;;52.93;30.83;;;;;;;22.77;100.00;93826.44;5042631;28;20570;-63
2022/06/29 04:10:32;;;;;;;45.83;29.83;;;;;;;22.16;100.00;93822.72;5049290;28;20216;-64
2022/06/29 04:13:16;;;;;;;47.80;29.10;;;;;;;22.36;100.00;93821.81;5045803;28;20205;-67
2022/06/29 04:16:00;;;;;;;48.13;30.40;;;;;;;21.70;100.00;93827.16;5050244;28;20197;-68
2022/06/29 04:18:44;;;;;;;41.83;28.40;;;;;;;21.88;100.00;93813.41;5050567;28;20277;-69
2022/06/29 04:21:28;;;;;;;44.07;29.83;;;;;;;22.00;100.00;93808.03;5044171;28;20251;-69
2022/06/29 04:24:12;;;;;;;46.33;31.37;;;;;;;22.02;100.00;93810.97;5057379;28;20205;-69
2022/06/29 04:26:56;;;;;;;48.77;30.93;;;;;;;21.59;100.00;93811.88;5052568;28;20201;-69
2022/06/29 04:29:41;;;;;;;55.60;34.37;;;;;;;21.91;100.00;93814.88;5045829;28;20286;-62
2022/06/29 04:32:24;;;;;;;55.30;32.50;;;;;;;22.12;100.00;93819.78;5047216;28;20275;-63
2022/06/29 04:35:08;;;;;;;50.77;33.83;;;;;;;21.98;100.00;93819.41;5046272;28;20698;-63
2022/06/29 04:37:52;;;;;;;55.97;31.87;;;;;;;21.73;100.00;93817.97;5050445;28;20258;-63
2022/06/29 04:40:36;;;;;;;55.50;31.97;;;;;;;22.41;100.00;93823.34;5049751;28;20216;-63
2022/06/29 04:43:20;;;;;;;64.23;36.97;;;;;;;22.44;100.00;93830.59;5044244;28;20257;-61
2022/06/29 04:46:19;;;;;;;51.87;33.57;;;;;;;22.05;100.00;93826.72;5039897;28;20287;-61
2022/06/29 04:49:03;;;;;;;53.23;34.47;;;;;;;22.36;100.00;93818.94;5044536;28;20205;-62
2022/06/29 04:51:47;;;;;;;49.10;32.23;;;;;;;22.34;100.00;93830.34;5045876;28;20264;-62
2022/06/29 04:54:32;;;;;;;48.93;32.03;;;;;;;22.77;100.00;93827.16;5046537;28;20248;-63
2022/06/29 04:57:16;;;;;;;43.00;29.27;;;;;;;22.58;100.00;93822.38;5044231;28;20205;-63
2022/06/29 05:00:00;;;;;;;46.40;29.57;;;;;;;22.89;100.00;93833.19;5025013;28;20842;-63
2022/06/29 05:02:44;;;;;;;44.33;29.93;;;;;;;23.41;100.00;93832.91;5046867;28;20287;-62
2022/06/29 05:05:28;;;;;;;44.07;31.47;;;;;;;23.61;100.00;93832.66;5044768;28;20724;-63
2022/06/29 05:08:12;;;;;;;44.67;30.40;;;;;;;23.81;100.00;93835.94;5039010;28;20233;-63
2022/06/29 05:10:56;;;;;;;41.37;30.13;;;;;;;23.73;100.00;93836.47;5044109;28;20629;-62
2022/06/29 05:13:42;;;;;;;41.87;27.33;;;;;;;23.83;100.00;93841.69;5044574;28;20198;-63
2022/06/29 05:16:26;;;;;;;41.97;25.97;;;;;;;23.68;100.00;93837.81;5034645;28;20213;-62
2022/06/29 05:19:10;;;;;;;38.27;25.60;;;;;;;23.97;100.00;93838.38;5038570;28;20333;-63
2022/06/29 05:21:54;;;;;;;29.90;22.53;;;;;;;23.94;100.00;93851.22;5025364;28;20225;-63
2022/06/29 05:24:38;;;;;;;24.53;21.23;;;;;;;23.82;100.00;93833.78;5044903;28;20233;-63
2022/06/29 05:27:22;;;;;;;21.40;19.30;;;;;;;24.49;100.00;93850.13;5046424;28;20221;-63
2022/06/29 05:30:06;;;;;;;20.13;18.03;;;;;;;23.89;99.01;93844.66;5040568;28;20209;-63
2022/06/29 05:32:51;;;;;;;22.50;20.10;;;;;;;24.16;100.00;93843.06;5047619;28;20418;-62
2022/06/29 05:35:35;;;;;;;20.93;18.97;;;;;;;24.47;100.00;93842.22;5047550;28;20339;-62
2022/06/29 05:38:20;;;;;;;20.70;18.70;;;;;;;24.10;100.00;93845.78;5050417;28;20197;-63
2022/06/29 05:41:04;;;;;;;26.60;19.00;;;;;;;23.37;97.85;93829.97;5044754;28;20253;-62
2022/06/29 05:43:51;;;;;;;18.20;16.30;;;;;;;23.09;100.00;93829.31;5042576;28;20217;-62
2022/06/29 05:46:35;;;;;;;18.73;15.67;;;;;;;23.55;100.00;93823.94;5046202;28;20205;-62
2022/06/29 05:49:19;;;;;;;21.03;15.77;;;;;;;23.36;99.90;93825.66;5052817;28;20208;-62
2022/06/29 05:52:03;;;;;;;17.13;15.43;;;;;;;23.79;100.00;93818.72;5053028;28;20202;-62
2022/06/29 05:54:47;;;;;;;18.20;16.27;;;;;;;23.52;100.00;93814.56;5052786;28;20201;-62
2022/06/29 05:57:33;;;;;;;19.20;17.17;;;;;;;23.38;98.63;93828.56;5049041;28;20282;-62
2022/06/29 06:00:19;;;;;;;20.63;18.57;;;;;;;23.09;100.00;93820.75;5049857;28;20206;-61
2022/06/29 06:03:03;;;;;;;20.53;17.53;;;;;;;23.60;100.00;93834.78;5048324;28;20283;-61
2022/06/29 06:05:47;;;;;;;18.17;16.37;;;;;;;23.91;100.00;93841.84;5047074;28;20744;-61
2022/06/29 06:08:31;;;;;;;21.47;17.07;;;;;;;24.05;100.00;93850.72;5052749;28;20637;-61
2022/06/29 06:11:15;;;;;;;20.43;17.27;;;;;;;24.49;80.54;93850.88;5051897;28;20662;-61
2022/06/29 06:13:59;;;;;;;17.73;15.87;;;;;;;24.88;69.03;93855.09;5051030;28;20213;-61
2022/06/29 06:16:43;;;;;;;17.27;15.67;;;;;;;25.26;67.96;93857.88;5052534;28;20265;-61
2022/06/29 06:19:27;;;;;;;15.80;14.10;;;;;;;25.20;67.56;93860.66;5052839;28;20213;-61
2022/06/29 06:22:12;;;;;;;20.03;14.67;;;;;;;25.49;65.29;93866.84;5046925;28;20222;-61
2022/06/29 06:24:57;;;;;;;15.33;13.80;;;;;;;25.84;63.52;93865.19;5054724;28;20241;-61
2022/06/29 06:27:41;;;;;;;18.70;14.50;;;;;;;25.97;63.71;93855.31;5052029;28;20212;-61
2022/06/29 06:30:25;;;;;;;15.13;13.43;;;;;;;26.54;62.41;93850.94;5051976;28;20247;-61
2022/06/29 06:33:10;;;;;;;14.03;11.93;;;;;;;26.58;60.34;93850.97;5052222;28;20193;-63
2022/06/29 06:35:55;;;;;;;12.37;10.07;;;;;;;25.33;63.28;93853.69;5052474;28;20690;-64
2022/06/29 06:38:39;;;;;;;11.80;10.67;;;;;;;25.72;63.44;93857.13;5044709;28;20208;-62
2022/06/29 06:41:22;;;;;;;11.37;10.33;;;;;;;26.02;63.61;93851.78;5047124;28;20589;-62
2022/06/29 06:44:06;;;;;;;10.80;9.70;;;;;;;25.65;63.27;93861.34;5042492;28;20198;-62
2022/06/29 06:46:51;;;;;;;11.03;10.00;;;;;;;26.56;61.57;93865.31;5051848;28;20563;-62
2022/06/29 06:49:35;;;;;;;12.40;9.43;;;;;;;26.61;58.07;93866.81;5046773;28;20213;-62
2022/06/29 06:52:19;;;;;;;13.50;8.98;;;;;;;26.25;62.80;93860.69;5051930;28;20213;-64
2022/06/29 06:55:03;;;;;;;9.75;8.75;;;;;;;26.96;59.25;93860.00;5038736;28;20550;-64
2022/06/29 06:57:47;;;;;;;10.20;8.85;;;;;;;25.97;62.76;93861.03;5046963;28;20613;-64
2022/06/29 07:00:32;;;;;;;10.23;8.57;;;;;;;26.63;59.27;93872.59;5047671;28;20244;-64
2022/06/29 07:03:15;;;;;;;11.07;8.65;;;;;;;27.35;59.40;93860.28;5050861;28;20233;-64
2022/06/29 07:06:00;;;;;;;9.23;7.57;;;;;;;27.24;57.17;93865.25;5041035;28;20197;-64
2022/06/29 07:08:45;;;;;;;10.80;8.25;;;;;;;27.52;57.39;93864.03;5052097;28;21031;-64
2022/06/29 07:11:30;;;;;;;9.52;8.60;;;;;;;26.76;58.21;93854.03;5048201;28;20225;-64
2022/06/29 07:14:14;;;;;;;12.38;8.27;;;;;;;26.34;59.68;93847.88;5050959;28;20739;-64
2022/06/29 07:16:58;;;;;;;11.32;7.63;;;;;;;26.73;58.50;93849.69;5050778;28;20327;-65
2022/06/29 07:19:43;;;;;;;9.25;7.90;;;;;;;25.27;63.88;93852.88;5044944;28;20567;-65
2022/06/29 07:22:27;;;;;;;9.05;7.30;;;;;;;26.01;60.66;93861.81;5055815;28;20686;-65
2022/06/29 07:25:10;;;;;;;8.05;7.00;;;;;;;26.39;61.01;93855.09;5053638;28;20209;-65
2022/06/29 07:27:54;;;;;;;9.15;7.68;;;;;;;26.58;60.12;93853.84;5050567;28;20263;-65
2022/06/29 07:30:39;;;;;;;8.40;6.75;;;;;;;25.77;63.01;93844.28;5037820;28;20214;-65
2022/06/29 07:33:23;;;;;;;7.32;6.63;;;;;;;25.30;63.37;93843.63;5045615;28;20592;-65
2022/06/29 07:36:07;;;;;;;11.45;7.30;;;;;;;25.32;63.36;93843.63;5047828;28;20696;-65
2022/06/29 07:38:51;;;;;;;9.55;7.50;;;;;;;25.61;60.75;93844.06;5050015;28;20570;-65
2022/06/29 07:41:36;;;;;;;7.65;6.60;;;;;;;26.43;60.10;93852.25;5049839;28;20260;-65
2022/06/29 07:44:20;;;;;;;8.55;7.20;;;;;;;25.94;60.00;93865.31;5040264;28;20686;-65
2022/06/29 07:47:04;;;;;;;7.47;6.88;;;;;;;26.48;57.90;93865.22;5043151;28;20244;-65
2022/06/29 07:49:48;;;;;;;10.18;7.30;;;;;;;26.83;57.36;93875.66;5051323;28;20198;-65
2022/06/29 07:52:33;;;;;;;8.13;7.38;;;;;;;26.63;57.86;93875.47;5044308;28;20218;-65
2022/06/29 07:55:17;;;;;;;7.72;6.57;;;;;;;26.52;59.04;93871.03;5042491;28;20197;-65
2022/06/29 07:58:01;;;;;;;10.02;6.38;;;;;;;26.94;56.84;93862.84;5049023;28;20221;-65
2022/06/29 08:00:45;;;;;;;8.88;6.18;;;;;;;27.24;56.56;93859.50;5048208;28;20272;-65
2022/06/29 08:03:31;;;;;;;9.25;6.13;;;;;;;28.67;51.20;93855.19;5039362;28;20688;-65
2022/06/29 08:06:15;;;;;;;6.45;5.50;;;;;;;28.94;50.83;93853.81;5046545;28;21907;-65
2022/06/29 08:09:02;;;;;;;7.60;5.53;;;;;;;29.77;49.08;93851.63;5049475;28;20204;-66
2022/06/29 08:11:46;;;;;;;8.18;5.03;;;;;;;29.06;50.56;93853.81;5045786;28;20210;-66
2022/06/29 08:14:31;;;;;;;6.15;5.65;;;;;;;28.70;49.08;93853.75;5044088;28;20197;-66
2022/06/29 08:17:15;;;;;;;8.52;5.60;;;;;;;28.24;51.69;93851.47;5047422;28;20204;-65
2022/06/29 08:19:58;;;;;;;7.75;5.97;;;;;;;29.42;nan;93843.75;5049507;28;20280;-66
2022/06/29 08:22:43;;;;;;;9.32;6.10;;;;;;;28.94;48.83;93842.28;5045011;28;20261;-66
2022/06/29 08:25:27;;;;;;;7.22;6.22;;;;;;;29.34;48.55;93836.53;5053023;28;20678;-66
2022/06/29 08:28:11;;;;;;;7.13;6.43;;;;;;;29.03;48.18;93837.94;5050665;28;20236;-66
2022/06/29 08:30:56;;;;;;;6.43;5.85;;;;;;;29.00;48.01;93832.91;5042484;28;20258;-66
2022/06/29 08:33:40;;;;;;;7.57;5.55;;;;;;;28.58;50.09;93842.22;5050634;28;20204;-66
2022/06/29 08:36:24;;;;;;;8.30;5.95;;;;;;;28.44;51.70;93834.97;5050593;28;20192;-66
2022/06/29 08:39:09;;;;;;;7.45;6.35;;;;;;;27.14;53.60;93838.56;5050339;28;20753;-66
2022/06/29 08:41:56;;;;;;;7.95;6.65;;;;;;;27.29;53.02;93837.94;5044881;28;20572;-66
2022/06/29 08:44:40;;;;;;;12.30;7.57;;;;;;;27.97;51.71;93825.41;5040100;28;20300;-66
2022/06/29 08:47:24;;;;;;;6.28;5.78;;;;;;;29.70;49.45;93829.25;5050686;28;20198;-65
2022/06/29 08:50:10;;;;;;;7.07;5.78;;;;;;;29.63;46.99;93810.47;5049036;28;20197;-65
2022/06/29 08:52:55;;;;;;;5.95;5.35;;;;;;;29.18;48.69;93824.97;5046017;28;20205;-65
2022/06/29 08:55:43;;;;;;;7.18;5.22;;;;;;;30.41;44.45;93826.13;5048271;28;20208;-65
2022/06/29 08:58:27;;;;;;;6.65;5.85;;;;;;;28.53;48.11;93847.94;5045036;28;20197;-65
2022/06/29 09:01:12;;;;;;;8.88;5.95;;;;;;;30.39;44.20;93846.34;5049402;28;20603;-65
2022/06/29 09:03:56;;;;;;;5.32;4.90;;;;;;;28.41;46.88;93853.69;5046994;28;20225;-65
2022/06/29 09:06:40;;;;;;;5.68;5.10;;;;;;;28.94;46.71;93860.31;5051386;28;20205;-65
2022/06/29 09:09:24;;;;;;;6.78;5.38;;;;;;;29.24;45.91;93856.72;5053812;28;20205;-65
2022/06/29 09:12:18;;;;;;;6.47;5.90;;;;;;;28.63;46.35;93858.06;5047030;28;20221;-66
2022/06/29 09:15:05;;;;;;;6.85;5.13;;;;;;;31.29;41.72;93865.34;5053473;28;20202;-66
2022/06/29 09:17:49;;;;;;;5.75;5.25;;;;;;;31.34;41.27;93866.06;5049639;28;20276;-66
2022/06/29 09:20:41;;;;;;;5.53;4.68;;;;;;;32.02;40.09;93869.78;5048440;28;20213;-66
2022/06/29 09:23:27;;;;;;;4.78;4.15;;;;;;;31.71;41.12;93860.69;5054699;28;20218;-66
2022/06/29 09:26:12;;;;;;;5.28;4.45;;;;;;;33.17;37.90;93865.41;5053554;28;20208;-66
2022/06/29 09:28:57;;;;;;;7.82;4.68;;;;;;;31.94;40.85;93875.66;5052453;28;20251;-66
2022/06/29 09:31:43;;;;;;;5.10;4.50;;;;;;;32.84;37.13;93870.25;5049043;28;20251;-66
2022/06/29 09:34:30;;;;;;;5.32;4.57;;;;;;;34.02;35.64;93858.19;5051103;28;20201;-66
2022/06/29 09:37:16;;;;;;;5.10;4.70;;;;;;;33.71;36.51;93860.22;5045937;28;20255;-66
2022/06/29 09:40:00;;;;;;;5.43;4.57;;;;;;;32.63;38.20;93857.47;5043726;28;20313;-66
2022/06/29 09:42:44;;;;;;;6.15;5.43;;;;;;;32.20;38.54;93854.38;5037857;28;20263;-65
2022/06/29 09:45:28;;;;;;;6.50;5.75;;;;;;;32.50;38.06;93866.34;5050530;28;20206;-65
2022/06/29 09:48:13;;;;;;;6.38;5.65;;;;;;;32.75;38.00;93863.13;5049302;28;20255;-65
2022/06/29 09:50:59;;;;;;;5.63;4.20;;;;;;;33.01;37.11;93864.94;5033042;28;20285;-65
2022/06/29 09:53:45;;;;;;;9.85;4.57;;;;;;;32.16;39.05;93858.03;5048779;28;20706;-66
2022/06/29 09:56:30;;;;;;;4.22;3.83;;;;;;;32.32;38.59;93854.97;5048248;28;20338;-66
2022/06/29 09:59:22;;;;;;;5.72;4.50;;;;;;;32.56;38.34;93859.00;5037398;28;20263;-65
2022/06/29 10:05:13;;;;;;;7.55;4.30;;;;;;;30.73;40.88;93845.50;5051296;28;20285;-65
2022/06/29 10:07:57;;;;;;;4.80;4.20;;;;;;;29.75;42.33;93842.22;5040420;28;20259;-65
2022/06/29 10:10:46;;;;;;;6.65;4.18;;;;;;;30.78;40.87;93844.72;5051402;28;20252;-65
2022/06/29 10:13:41;;;;;;;7.15;4.13;;;;;;;30.40;41.01;93836.25;5042643;28;20285;-65
2022/06/29 10:16:40;;;;;;;6.32;4.40;;;;;;;31.04;40.88;93843.88;5039905;28;20729;-64
2022/06/29 10:19:40;;;;;;;6.43;4.70;;;;;;;29.81;42.19;93842.22;5051912;28;20569;-64
2022/06/29 10:22:29;;;;;;;5.03;4.47;;;;;;;29.17;43.61;93846.63;5040527;28;20847;-64
2022/06/29 10:25:13;;;;;;;6.00;5.22;;;;;;;28.66;44.85;93830.66;5042718;28;20244;-65
2022/06/29 10:28:16;;;;;;;5.65;5.15;;;;;;;28.84;45.56;93830.72;5048651;28;20206;-65
2022/06/29 10:31:01;;;;;;;5.30;4.80;;;;;;;29.43;43.91;93839.41;5046154;28;20322;-65
2022/06/29 10:33:45;;;;;;;5.85;5.30;;;;;;;29.79;43.05;93830.66;5047495;28;20747;-67
2022/06/29 10:37:01;;;;;;;7.32;5.20;;;;;;;30.67;41.90;93834.69;5051461;28;20205;-67
2022/06/29 10:39:45;;;;;;;7.65;4.78;;;;;;;30.73;42.33;93837.53;5047553;28;20201;-65
2022/06/29 10:45:39;;;;;;;5.00;4.50;;;;;;;31.79;39.79;93830.91;5048302;28;20730;-65
2022/06/29 10:48:24;;;;;;;7.85;4.18;;;;;;;31.60;40.03;93831.06;5051519;28;20229;-65
2022/06/29 10:51:11;;;;;;;6.20;4.65;;;;;;;31.22;39.98;93832.13;5051797;28;20213;-65
2022/06/29 10:53:55;;;;;;;4.53;4.13;;;;;;;31.35;40.59;93832.75;5052361;28;20197;-65
2022/06/29 10:56:39;;;;;;;4.43;4.03;;;;;;;30.27;42.04;93829.78;5041138;28;20214;-66
2022/06/29 10:59:34;;;;;;;3.80;3.50;;;;;;;32.48;38.65;93822.84;5051233;28;20200;-65
2022/06/29 11:02:19;;;;;;;4.40;4.00;;;;;;;31.54;39.14;93825.31;5051290;28;20213;-66
2022/06/29 11:05:04;;;;;;;4.35;3.70;;;;;;;32.91;36.54;93828.06;5052440;28;20577;-66
2022/06/29 11:14:05;;;;;;;5.38;3.30;;;;;;;31.65;39.00;93811.50;5050788;28;20197;-69
2022/06/29 11:16:52;;;;;;;6.15;4.15;;;;;;;31.86;37.80;93811.97;5049084;28;20689;-66
2022/06/29 11:19:36;;;;;;;6.45;3.90;;;;;;;34.66;34.95;93803.09;5040335;28;20260;-70
2022/06/29 11:22:21;;;;;;;5.05;3.30;;;;;;;33.27;36.57;93801.38;5043045;28;20252;-69
2022/06/29 11:25:05;;;;;;;3.17;2.88;;;;;;;32.02;38.57;93811.81;5050883;28;20694;-69
2022/06/29 11:27:49;;;;;;;4.60;2.85;;;;;;;33.95;34.89;93801.63;5047667;28;20586;-69
2022/06/29 11:30:34;;;;;;;4.03;3.00;;;;;;;34.00;34.20;93803.00;5044414;28;20205;-70
2022/06/29 11:33:18;;;;;;;4.93;3.10;;;;;;;34.02;34.45;93799.31;5049076;28;20235;-70
2022/06/29 11:36:06;;;;;;;5.20;2.83;;;;;;;35.88;32.39;93812.56;5049070;28;20279;-71
2022/06/29 11:38:54;;;;;;;4.50;3.08;;;;;;;34.08;33.23;93808.66;5048862;28;20255;-70
2022/06/29 11:45:05;;;;;;;5.72;2.65;;;;;;;33.91;32.56;93801.72;5048515;28;20201;-72
2022/06/29 11:47:52;;;;;;;6.45;3.05;;;;;;;34.65;31.32;93807.47;5048551;28;20232;-72
2022/06/29 11:50:53;;;;;;;8.32;2.80;;;;;;;36.00;30.48;93799.84;5045029;28;20213;-73
2022/06/29 11:53:45;;;;;;;3.42;2.13;;;;;;;35.45;30.85;93797.63;5047033;28;20200;-72
2022/06/29 11:56:30;;;;;;;6.20;2.45;;;;;;;35.46;30.41;93788.13;5041933;28;20574;-72
2022/06/29 11:59:16;;;;;;;2.60;2.35;;;;;;;36.12;28.99;93799.50;5051366;28;20209;-72
2022/06/29 12:02:01;;;;;;;4.35;2.70;;;;;;;36.71;29.17;93801.50;5049667;28;20209;-72
2022/06/29 12:04:46;;;;;;;3.28;2.30;;;;;;;36.81;28.77;93815.06;5045115;28;20222;-72
2022/06/29 12:07:30;;;;;;;5.22;2.35;;;;;;;37.43;28.67;93808.75;5049577;28;20810;-73
2022/06/29 12:10:16;;;;;;;2.78;2.05;;;;;;;38.36;26.59;93794.56;5044667;28;20283;-72
2022/06/29 12:13:00;;;;;;;6.43;2.88;;;;;;;37.28;27.50;93799.75;5043252;28;20209;-73
2022/06/29 12:15:44;;;;;;;4.75;2.00;;;;;;;36.79;29.77;93797.59;5050038;28;20224;-72
2022/06/29 12:18:28;;;;;;;3.13;2.33;;;;;;;37.71;28.61;93790.28;5051012;28;20270;-73
2022/06/29 12:21:12;;;;;;;5.43;1.90;;;;;;;38.41;26.16;93795.09;5045589;28;20263;-72
2022/06/29 12:23:57;;;;;;;4.32;2.17;;;;;;;36.92;28.68;93795.72;5050045;28;20271;-72
2022/06/29 12:26:41;;;;;;;4.25;2.17;;;;;;;37.02;28.35;93801.28;5050376;28;20269;-73
2022/06/29 12:29:24;;;;;;;4.20;2.10;;;;;;;36.35;28.88;93791.59;5042750;28;20209;-73
2022/06/29 12:32:08;;;;;;;2.40;1.98;;;;;;;39.31;25.05;93804.84;5043156;28;20205;-73
2022/06/29 12:34:52;;;;;;;2.63;2.13;;;;;;;39.53;24.99;93806.88;5049292;28;20205;-72
2022/06/29 12:37:37;;;;;;;3.38;1.90;;;;;;;38.84;27.02;93800.09;5050537;28;20264;-73
2022/06/29 12:40:21;;;;;;;3.20;1.92;;;;;;;36.94;28.01;93810.28;5039869;28;20193;-73
2022/06/29 12:43:05;;;;;;;3.85;2.28;;;;;;;37.28;27.93;93799.03;5041844;28;20225;-71
2022/06/29 12:45:49;;;;;;;7.72;2.53;;;;;;;36.44;29.35;93803.72;5045587;28;20208;-73
2022/06/29 12:48:33;;;;;;;2.75;2.17;;;;;;;35.99;29.79;93801.31;5050395;28;20201;-73
2022/06/29 12:51:17;;;;;;;4.38;2.50;;;;;;;34.99;31.19;93799.47;5050142;28;20252;-73
2022/06/29 12:54:01;;;;;;;4.80;2.72;;;;;;;36.61;28.51;93803.97;5046478;28;20234;-70
2022/06/29 12:56:46;;;;;;;3.28;2.15;;;;;;;38.75;25.74;93808.50;5045332;28;20689;-70
2022/06/29 12:59:30;;;;;;;5.35;2.63;;;;;;;37.13;27.61;93804.59;5052621;28;20197;-71